createdAt,value
2023-04-15T00:48:29.535Z,50.70
2023-04-15T00:50:58.754Z,50.70
2023-04-15T00:53:27.124Z,50.70
2023-04-15T00:55:56.102Z,50.70
2023-04-15T00:58:25.015Z,50.80
2023-04-15T01:46:52.671Z,50.70
2023-04-15T01:49:22.774Z,50.70
2023-04-15T01:51:51.354Z,50.80
2023-04-15T01:54:19.793Z,50.80
2023-04-15T01:56:48.276Z,50.80
2023-04-15T01:59:16.835Z,50.80
2023-04-15T02:47:03.729Z,50.80
2023-04-15T02:49:32.489Z,50.70
2023-04-15T02:52:02.180Z,50.80
2023-04-15T02:54:30.947Z,50.80
2023-04-15T02:56:59.708Z,50.80
2023-04-15T02:59:28.498Z,50.80
2023-04-15T03:46:11.433Z,50.70
2023-04-15T03:48:40.105Z,50.70
2023-04-15T03:51:08.557Z,50.80
2023-04-15T03:53:37.080Z,50.80
2023-04-15T03:56:06.425Z,50.80
2023-04-15T03:58:34.884Z,50.80
2023-04-15T04:46:06.844Z,50.80
2023-04-15T04:48:36.939Z,50.80
2023-04-15T04:51:05.865Z,50.80
2023-04-15T04:53:34.349Z,50.80
2023-04-15T04:56:02.859Z,50.80
2023-04-15T04:58:31.497Z,50.80
2023-04-15T05:01:00.045Z,50.80
2023-04-15T05:03:28.651Z,50.80
2023-04-15T05:05:58.649Z,50.80
2023-04-15T05:08:27.066Z,50.90
2023-04-15T05:10:55.470Z,50.80
2023-04-15T05:13:23.880Z,50.80
2023-04-15T05:15:52.606Z,50.90
2023-04-15T05:18:21.106Z,50.80
2023-04-15T05:20:50.143Z,50.80
2023-04-15T05:23:20.357Z,50.80
2023-04-15T05:25:48.907Z,50.80
2023-04-15T05:28:17.490Z,50.80
2023-04-15T05:30:46.066Z,50.80
2023-04-15T05:33:14.669Z,50.80
2023-04-15T05:35:43.059Z,50.90
2023-04-15T05:38:11.696Z,50.80
2023-04-15T05:40:41.602Z,50.80
2023-04-15T05:43:10.154Z,50.80
2023-04-15T05:45:38.654Z,50.80
2023-04-15T05:48:07.258Z,50.80
2023-04-15T05:50:35.891Z,51.40
2023-04-15T05:53:04.448Z,50.80
2023-04-15T05:55:32.948Z,50.80
2023-04-15T05:58:03.752Z,50.80
2023-04-15T06:00:32.227Z,50.80
2023-04-15T06:03:01.022Z,50.80
2023-04-15T06:05:29.485Z,50.80
2023-04-15T06:07:57.939Z,50.80
2023-04-15T06:10:26.428Z,50.80
2023-04-15T06:12:54.919Z,50.80
2023-04-15T06:15:24.776Z,50.80
2023-04-15T06:17:53.287Z,50.80
2023-04-15T06:20:21.773Z,50.80
2023-04-15T06:22:50.196Z,50.80
2023-04-15T06:25:19.080Z,50.80
2023-04-15T06:27:48.309Z,50.80
2023-04-15T06:30:17.054Z,50.80
2023-04-15T06:32:47.223Z,50.80
2023-04-15T06:35:16.049Z,50.80
2023-04-15T06:37:44.502Z,50.80
2023-04-15T06:40:14.242Z,50.80
2023-04-15T06:42:42.801Z,50.80
2023-04-15T06:45:12.703Z,50.80
2023-04-15T06:47:42.040Z,50.80
2023-04-15T06:50:12.590Z,50.80
2023-04-15T06:52:41.529Z,50.80
2023-04-15T06:55:10.886Z,50.90
2023-04-15T06:57:39.530Z,50.80
2023-04-15T07:00:11.171Z,50.80
2023-04-15T07:02:39.732Z,50.80
2023-04-15T07:05:08.904Z,50.90
2023-04-15T07:07:38.736Z,50.80
2023-04-15T07:10:09.015Z,50.80
2023-04-15T07:12:37.505Z,50.80
2023-04-15T07:15:07.766Z,50.90
2023-04-15T07:17:36.342Z,50.80
2023-04-15T07:20:05.226Z,50.80
2023-04-15T07:22:34.091Z,50.90
2023-04-15T07:25:04.034Z,50.90
2023-04-15T07:27:32.589Z,50.90
2023-04-15T07:30:01.001Z,50.90
2023-04-15T07:32:29.523Z,50.90
2023-04-15T07:34:58.400Z,50.90
2023-04-15T07:37:28.355Z,50.90
2023-04-15T07:39:56.843Z,50.90
2023-04-15T07:42:27.086Z,50.90
2023-04-15T07:44:55.604Z,50.90
2023-04-15T07:47:24.099Z,50.90
2023-04-15T07:49:52.592Z,50.90
2023-04-15T07:52:21.058Z,50.90
2023-04-15T07:54:49.545Z,50.90
2023-04-15T07:57:18.442Z,50.90
2023-04-15T07:59:48.277Z,50.90
2023-04-15T08:02:16.892Z,50.90
2023-04-15T08:04:45.519Z,51.00
2023-04-15T08:07:14.051Z,50.90
2023-04-15T08:09:42.459Z,50.80
2023-04-15T08:12:13.384Z,50.90
2023-04-15T08:14:41.802Z,50.90
2023-04-15T08:17:11.548Z,51.00
2023-04-15T08:19:40.033Z,50.80
2023-04-15T08:22:10.425Z,50.90
2023-04-15T08:24:44.214Z,50.90
2023-04-15T08:27:12.736Z,50.90
2023-04-15T08:29:41.711Z,50.90
2023-04-15T08:32:11.926Z,50.90
2023-04-15T08:34:40.481Z,50.90
2023-04-15T08:37:09.634Z,51.50
2023-04-15T08:39:39.297Z,50.90
2023-04-15T08:42:13.464Z,50.90
2023-04-15T08:44:42.616Z,50.90
2023-04-15T08:47:15.768Z,51.00
2023-04-15T08:49:45.166Z,51.00
2023-04-15T08:52:14.383Z,50.90
2023-04-15T08:54:43.012Z,51.00
2023-04-15T08:57:11.873Z,51.00
2023-04-15T08:59:40.757Z,50.90
2023-04-15T09:02:09.737Z,51.00
2023-04-15T09:04:39.540Z,51.00
2023-04-15T09:07:08.185Z,51.00
2023-04-15T09:09:40.192Z,50.90
2023-04-15T09:12:09.541Z,50.90
2023-04-15T09:14:39.512Z,51.40
2023-04-15T09:17:11.592Z,50.90
2023-04-15T09:19:41.656Z,50.90
2023-04-15T09:22:10.715Z,50.90
2023-04-15T09:24:43.303Z,50.90
2023-04-15T09:27:12.253Z,50.90
2023-04-15T09:29:43.436Z,50.90
2023-04-15T09:32:14.162Z,50.90
2023-04-15T09:34:44.567Z,50.90
2023-04-15T09:37:28.660Z,50.90
2023-04-15T09:40:00.637Z,50.90
2023-04-15T09:42:29.304Z,51.00
2023-04-15T09:45:08.891Z,51.00
2023-04-15T09:47:37.357Z,51.00
2023-04-15T09:50:08.577Z,51.00
2023-04-15T09:52:44.222Z,51.00
2023-04-15T09:55:14.287Z,51.00
2023-04-15T09:57:44.357Z,51.00
2023-04-15T10:00:14.188Z,51.00
2023-04-15T10:02:43.607Z,51.00
2023-04-15T10:05:17.642Z,51.00
2023-04-15T10:07:46.857Z,51.00
2023-04-15T10:10:15.863Z,51.00
2023-04-15T10:12:45.234Z,51.00
2023-04-15T10:15:17.889Z,51.00
2023-04-15T10:17:49.144Z,51.00
2023-04-15T10:20:20.612Z,51.00
2023-04-15T10:22:49.777Z,50.90
2023-04-15T10:25:18.419Z,50.90
2023-04-15T10:27:48.646Z,50.90
2023-04-15T10:30:17.577Z,51.00
2023-04-15T10:32:47.017Z,50.90
2023-04-15T10:35:16.493Z,50.90
2023-04-15T10:37:46.397Z,50.90
2023-04-15T10:40:28.477Z,50.90
2023-04-15T10:42:57.771Z,50.90
2023-04-15T10:45:28.828Z,50.90
2023-04-15T10:47:58.748Z,50.90
2023-04-15T10:50:29.809Z,51.00
2023-04-15T10:53:00.313Z,51.00
2023-04-15T10:55:33.120Z,51.00
2023-04-15T10:58:03.755Z,51.00
2023-04-15T11:00:35.374Z,51.00
2023-04-15T11:03:08.934Z,51.00
2023-04-15T11:05:58.575Z,51.00
2023-04-15T11:09:02.429Z,51.00
2023-04-15T11:12:08.308Z,51.00
2023-04-15T11:14:41.400Z,51.00
2023-04-15T11:17:10.391Z,51.00
2023-04-15T11:19:39.806Z,51.00
2023-04-15T11:22:10.260Z,51.00
2023-04-15T11:24:50.606Z,51.10
2023-04-15T11:27:23.634Z,51.10
2023-04-15T11:29:52.965Z,51.10
2023-04-15T11:32:23.579Z,51.10
2023-04-15T11:34:53.704Z,51.00
2023-04-15T11:37:30.746Z,51.00
2023-04-15T11:40:00.698Z,51.00
2023-04-15T11:42:39.322Z,51.00
2023-04-15T11:45:16.991Z,51.00
2023-04-15T11:47:45.448Z,51.10
2023-04-15T11:50:18.549Z,51.10
2023-04-15T11:52:57.867Z,51.60
2023-04-15T11:55:28.561Z,51.10
2023-04-15T11:58:13.537Z,51.10
2023-04-15T12:00:49.020Z,51.10
2023-04-15T12:03:25.519Z,51.10
2023-04-15T12:06:10.585Z,51.00
2023-04-15T12:09:04.831Z,51.00
2023-04-15T12:11:41.100Z,51.00
2023-04-15T12:14:22.900Z,51.00
2023-04-15T12:16:54.972Z,51.00
2023-04-15T12:19:29.433Z,51.00
2023-04-15T12:22:01.453Z,51.00
2023-04-15T12:24:33.137Z,51.10
2023-04-15T12:27:06.241Z,51.10
2023-04-15T12:29:36.887Z,51.10
2023-04-15T12:32:10.945Z,51.10
2023-04-15T12:34:41.563Z,51.10
2023-04-15T12:37:11.821Z,51.10
2023-04-15T12:39:42.623Z,51.10
2023-04-15T12:42:13.648Z,51.10
2023-04-15T12:44:42.323Z,51.10
2023-04-15T12:47:12.035Z,51.10
2023-04-15T12:49:41.113Z,51.10
2023-04-15T12:52:09.913Z,51.10
2023-04-15T12:54:38.349Z,51.10
2023-04-15T12:57:07.640Z,51.20
2023-04-15T12:59:37.825Z,51.20
2023-04-15T13:02:06.456Z,51.20
2023-04-15T13:04:35.113Z,51.20
2023-04-15T13:07:03.988Z,51.20
2023-04-15T13:09:32.470Z,51.10
2023-04-15T13:12:01.338Z,51.10
2023-04-15T13:14:29.892Z,51.10
2023-04-15T13:17:00.470Z,51.20
2023-04-15T13:19:28.986Z,51.20
2023-04-15T13:21:57.332Z,51.20
2023-04-15T13:24:25.791Z,51.20
2023-04-15T13:26:54.533Z,51.20
2023-04-15T13:29:23.282Z,51.20
2023-04-15T13:31:51.882Z,51.20
2023-04-15T13:34:21.718Z,51.20
2023-04-15T13:36:50.173Z,51.20
2023-04-15T13:39:18.720Z,51.20
2023-04-15T13:41:48.470Z,51.20
2023-04-15T13:44:17.468Z,51.20
2023-04-15T13:46:47.198Z,51.20
2023-04-15T13:49:15.795Z,51.20
2023-04-15T13:51:45.700Z,51.20
2023-04-15T13:54:14.165Z,51.20
2023-04-15T13:56:42.739Z,51.20
2023-04-15T13:59:11.353Z,51.20
2023-04-15T14:01:41.310Z,51.20
2023-04-15T14:04:10.181Z,51.20
2023-04-15T14:06:39.026Z,51.20
2023-04-15T14:09:09.032Z,51.20
2023-04-15T14:11:39.298Z,51.10
2023-04-15T14:14:07.781Z,51.20
2023-04-15T14:16:36.980Z,51.20
2023-04-15T14:19:05.628Z,51.20
2023-04-15T14:21:34.346Z,51.20
2023-04-15T14:24:02.849Z,51.20
2023-04-15T14:26:32.663Z,51.20
2023-04-15T14:29:01.215Z,51.20
2023-04-15T14:31:29.764Z,51.20
2023-04-15T14:33:58.188Z,51.30
2023-04-15T14:36:27.202Z,51.20
2023-04-15T14:38:55.674Z,51.20
2023-04-15T14:41:24.104Z,51.20
2023-04-15T14:43:53.876Z,51.30
2023-04-15T14:46:22.483Z,51.30
2023-04-15T14:48:51.115Z,51.30
2023-04-15T14:51:19.565Z,51.30
2023-04-15T14:53:47.965Z,51.30
2023-04-15T14:56:16.454Z,51.90
2023-04-15T14:58:45.059Z,51.30
2023-04-15T15:01:15.097Z,51.20
2023-04-15T15:03:43.912Z,51.20
2023-04-15T15:06:12.763Z,51.20
2023-04-15T15:08:41.357Z,51.20
2023-04-15T15:11:09.832Z,51.20
2023-04-15T15:13:38.580Z,51.20
2023-04-15T15:16:07.960Z,51.10
2023-04-15T15:18:38.810Z,51.20
2023-04-15T15:21:07.644Z,51.20
2023-04-15T15:23:36.116Z,51.20
2023-04-15T15:26:04.623Z,51.20
2023-04-15T15:28:33.052Z,51.20
2023-04-15T15:31:01.683Z,51.80
2023-04-15T15:33:30.449Z,51.20
2023-04-15T15:36:00.765Z,51.20
2023-04-15T15:38:29.709Z,51.20
2023-04-15T15:40:58.093Z,51.20
2023-04-15T15:43:26.513Z,51.20
2023-04-15T15:45:55.742Z,51.30
2023-04-15T15:48:25.332Z,51.30
2023-04-15T15:50:54.011Z,51.30
2023-04-15T15:53:25.731Z,51.30
2023-04-15T15:55:55.351Z,51.30
2023-04-15T15:58:23.767Z,51.30
2023-04-15T16:00:52.235Z,51.30
2023-04-15T16:03:21.004Z,51.30
2023-04-15T16:05:49.611Z,51.30
2023-04-15T16:08:18.353Z,51.20
2023-04-15T16:10:48.174Z,51.20
2023-04-15T16:13:16.899Z,51.20
2023-04-15T16:15:45.465Z,51.30
2023-04-15T16:18:13.953Z,51.20
2023-04-15T16:20:42.475Z,51.20
2023-04-15T16:23:14.471Z,51.20
2023-04-15T16:25:45.344Z,51.20
2023-04-15T16:28:25.789Z,51.20
2023-04-15T16:30:55.501Z,51.20
2023-04-15T16:33:23.886Z,51.20
2023-04-15T16:35:52.700Z,51.20
2023-04-15T16:38:21.113Z,51.20
2023-04-15T16:40:49.618Z,51.20
2023-04-15T16:43:20.062Z,51.20
2023-04-15T16:45:51.216Z,51.20
2023-04-15T16:48:20.587Z,51.20
2023-04-15T16:50:49.083Z,51.20
2023-04-15T16:53:17.848Z,51.20
2023-04-15T16:55:46.242Z,51.20
2023-04-15T16:58:14.773Z,51.20
2023-04-15T17:00:44.701Z,51.20
2023-04-15T17:03:13.299Z,51.20
2023-04-15T17:05:42.300Z,51.20
2023-04-15T17:08:10.910Z,51.20
2023-04-15T17:10:39.582Z,51.20
2023-04-15T17:13:08.373Z,51.20
2023-04-15T17:15:36.904Z,51.20
2023-04-15T17:18:06.856Z,51.10
2023-04-15T17:20:35.600Z,51.10
2023-04-15T17:23:04.758Z,51.20
2023-04-15T17:25:33.241Z,51.20
2023-04-15T17:28:01.871Z,51.20
2023-04-15T17:30:30.325Z,51.20
2023-04-15T17:32:58.779Z,51.30
2023-04-15T17:35:28.579Z,51.20
2023-04-15T17:37:57.062Z,51.30
2023-04-15T17:40:25.729Z,51.30
2023-04-15T17:42:54.480Z,51.30
2023-04-15T17:45:22.914Z,51.30
2023-04-15T17:47:51.536Z,51.30
2023-04-15T17:50:20.359Z,51.30
2023-04-15T17:52:50.350Z,51.20
2023-04-15T17:55:19.280Z,51.20
2023-04-15T17:57:47.898Z,51.20
2023-04-15T18:00:18.266Z,51.20
2023-04-15T18:02:48.620Z,51.20
2023-04-15T18:05:18.833Z,51.20
2023-04-15T18:07:47.418Z,51.20
2023-04-15T18:10:17.224Z,51.20
2023-04-15T18:12:45.972Z,51.20
2023-04-15T18:15:15.034Z,51.20
2023-04-15T18:17:43.721Z,51.20
2023-04-15T18:20:12.879Z,51.30
2023-04-15T18:22:41.409Z,51.20
2023-04-15T18:25:10.872Z,51.20
2023-04-15T18:27:40.843Z,51.20
2023-04-15T18:30:11.519Z,51.20
2023-04-15T18:32:40.526Z,51.20
2023-04-15T18:35:10.078Z,51.10
2023-04-15T18:37:38.482Z,51.20
2023-04-15T18:40:10.134Z,51.20
2023-04-15T18:42:40.002Z,51.20
2023-04-15T18:45:09.813Z,51.20
2023-04-15T18:47:38.423Z,51.70
2023-04-15T18:50:08.713Z,51.20
2023-04-15T18:52:37.298Z,51.20
2023-04-15T18:55:06.976Z,51.20
2023-04-15T18:57:36.134Z,51.20
2023-04-15T19:00:09.079Z,51.20
2023-04-15T19:02:37.549Z,51.20
2023-04-15T19:05:06.806Z,51.20
2023-04-15T19:07:35.843Z,51.20
2023-04-15T19:10:06.230Z,51.20
2023-04-15T19:12:36.526Z,51.20
2023-04-15T19:15:07.428Z,51.30
2023-04-15T19:17:36.184Z,51.30
2023-04-15T19:20:05.009Z,51.20
2023-04-15T19:22:33.517Z,51.20
2023-04-15T19:25:02.086Z,51.30
2023-04-15T19:27:30.653Z,51.30
2023-04-15T19:29:59.474Z,51.30
2023-04-15T19:32:29.307Z,51.20
2023-04-15T19:34:57.852Z,51.20
2023-04-15T19:37:26.360Z,51.20
2023-04-15T19:39:56.493Z,51.20
2023-04-15T19:42:25.033Z,51.20
2023-04-15T19:44:53.450Z,51.20
2023-04-15T19:47:22.561Z,51.20
2023-04-15T19:49:52.791Z,51.20
2023-04-15T19:52:22.385Z,51.20
2023-04-15T19:54:50.938Z,51.20
2023-04-15T19:57:19.447Z,51.10
2023-04-15T19:59:47.968Z,51.20
2023-04-15T20:02:17.042Z,51.10
2023-04-15T20:04:45.725Z,51.20
2023-04-15T20:07:15.678Z,51.10
2023-04-15T20:09:45.421Z,51.20
2023-04-15T20:12:50.314Z,51.20
2023-04-15T20:15:02.225Z,51.20
2023-04-15T20:17:34.282Z,51.20
2023-04-15T20:20:02.963Z,51.20
2023-04-15T20:22:32.985Z,51.20
2023-04-15T20:25:02.932Z,51.20
2023-04-15T20:27:31.464Z,51.20
2023-04-15T20:29:59.934Z,51.20
2023-04-15T20:32:28.734Z,51.20
2023-04-15T20:34:57.406Z,51.30
2023-04-15T20:37:26.023Z,51.20
2023-04-15T20:39:55.765Z,51.20
2023-04-15T20:42:24.268Z,51.20
2023-04-15T20:44:52.951Z,51.20
2023-04-15T20:47:21.534Z,51.20
2023-04-15T20:49:50.074Z,51.20
2023-04-15T20:52:18.808Z,51.10
2023-04-15T20:54:47.954Z,51.20
2023-04-15T20:57:17.903Z,51.10
2023-04-15T20:59:46.314Z,51.20
2023-04-15T21:02:14.845Z,51.20
2023-04-15T21:04:43.435Z,51.20
2023-04-15T21:07:12.079Z,51.20
2023-04-15T21:09:41.510Z,51.20
2023-04-15T21:12:10.919Z,51.20
2023-04-15T21:14:41.280Z,51.20
2023-04-15T21:17:11.104Z,51.20
2023-04-15T21:19:40.344Z,51.20
2023-04-15T21:22:08.796Z,51.20
2023-04-15T21:24:37.263Z,51.20
2023-04-15T21:27:05.985Z,51.20
2023-04-15T21:29:34.475Z,51.20
2023-04-15T21:32:04.399Z,51.20
2023-04-15T21:34:33.039Z,51.20
2023-04-15T21:37:01.543Z,51.20
2023-04-15T21:39:30.151Z,51.20
2023-04-15T21:41:59.396Z,51.20
2023-04-15T21:44:27.915Z,51.30
2023-04-15T21:46:56.517Z,51.20
2023-04-15T21:49:26.673Z,51.20
2023-04-15T21:51:55.113Z,51.30
2023-04-15T21:54:23.515Z,51.20
2023-04-15T21:56:51.973Z,51.20
2023-04-15T21:59:20.527Z,51.20
2023-04-15T22:01:49.140Z,51.20
2023-04-15T22:04:17.916Z,51.20
2023-04-15T22:06:47.804Z,51.20
2023-04-15T22:09:16.667Z,51.20
2023-04-15T22:11:46.183Z,51.30
2023-04-15T22:14:14.914Z,51.30
2023-04-15T22:16:44.337Z,51.30
2023-04-15T22:19:12.823Z,51.30
2023-04-15T22:21:41.242Z,51.30
2023-04-15T22:24:33.064Z,51.30
2023-04-15T22:26:59.773Z,51.20
2023-04-15T22:29:28.271Z,51.20
2023-04-15T22:31:56.748Z,51.20
2023-04-15T22:34:25.237Z,51.20
2023-04-15T22:36:54.040Z,51.20
2023-04-15T22:39:23.878Z,51.20
2023-04-15T22:41:52.328Z,51.20
2023-04-15T22:44:20.902Z,51.20
2023-04-15T22:46:52.108Z,51.20
2023-04-15T22:49:20.648Z,51.20
2023-04-15T22:51:49.223Z,51.20
2023-04-15T22:54:17.747Z,51.20
2023-04-15T22:56:47.598Z,51.10
2023-04-15T22:59:16.006Z,51.50
2023-04-15T23:01:44.615Z,51.20
2023-04-15T23:04:24.838Z,51.20
2023-04-15T23:06:56.141Z,51.10
2023-04-15T23:09:24.644Z,51.10
2023-04-15T23:11:54.734Z,51.20
2023-04-15T23:14:23.423Z,51.20
2023-04-15T23:16:51.859Z,51.20
2023-04-15T23:19:20.296Z,51.20
2023-04-15T23:21:48.822Z,51.20
2023-04-15T23:24:17.513Z,51.10
2023-04-15T23:26:45.966Z,51.10
2023-04-15T23:29:15.792Z,51.20
2023-04-15T23:47:28.430Z,51.20
2023-04-15T23:49:56.926Z,51.20
2023-04-15T23:52:25.452Z,51.20
2023-04-15T23:54:54.001Z,51.20
2023-04-15T23:57:22.463Z,51.30
2023-04-15T23:59:51.029Z,51.20
